Time;durP1;ratioP1;P1;durP2;ratioP2;P2;SDS_P1;SDS_P2;PMS_P1;PMS_P2;Temp;Humidity;BMP_temperature;BMP_pressure;BME280_temperature;BME280_humidity;BME280_pressure;Samples;Min_cycle;Max_cycle;Signal;HPM_P1;HPM_P2
2022/09/28 00:01:06;;;;;;;;;;;14.10;50.20;;;12.03;56.54;99384.47;12254286;19;19925;-89
2022/09/28 00:05:10;;;;;;;;;;;14.10;50.20;;;11.97;56.71;99382.38;12243956;19;19926;-88
2022/09/28 00:09:13;;;;;;;;;;;14.10;50.20;;;11.68;56.73;99330.66;12254279;19;19990;-88
2022/09/28 00:13:15;;;;;;;;;;;14.10;50.20;;;12.02;56.79;99380.22;12251567;19;19927;-88
2022/09/28 00:17:21;;;;;;;;;;;14.10;50.30;;;11.94;56.69;99373.81;12249511;19;19967;-88
2022/09/28 00:21:24;;;;;;;;;;;14.30;50.30;;;11.96;56.71;99376.28;12251678;19;19921;-88
2022/09/28 00:25:26;;;;;;;;;;;14.00;50.30;;;11.59;56.66;99306.09;12245264;19;19926;-88
2022/09/28 00:29:34;;;;;;;;;;;14.00;50.30;;;11.92;56.79;99353.97;12252842;19;20325;-88
2022/09/28 00:33:35;;;;;;;;;;;14.10;50.40;;;12.01;56.80;99361.06;12248353;19;19919;-88
2022/09/28 00:37:37;;;;;;;;;;;14.10;50.60;;;12.12;56.78;99370.63;12250116;19;19926;-88
2022/09/28 00:41:39;;;;;;;;;;;14.20;50.60;;;12.19;56.72;99371.78;12250131;19;19924;-88
2022/09/28 00:45:41;;;;;;;;;;;14.10;50.50;;;12.05;56.74;99333.69;12244183;19;19907;-88
2022/09/28 00:49:46;;;;;;;;;;;14.10;50.50;;;12.14;56.69;99348.59;12249682;19;20346;-88
2022/09/28 00:53:48;;;;;;;;;;;14.20;50.60;;;12.09;56.67;99329.03;12249725;19;19922;-88
2022/09/28 00:57:54;;;;;;;;;;;14.50;50.70;;;12.31;56.83;99362.91;12247331;19;19952;-88
2022/09/28 01:01:55;;;;;;;;;;;14.70;50.80;;;12.12;56.72;99331.38;12248403;19;19971;-88
2022/09/28 01:05:58;;;;;;;;;;;14.30;50.60;;;11.88;56.72;99295.00;12245277;19;19925;-88
2022/09/28 01:10:00;;;;;;;;;;;14.30;50.60;;;12.22;56.83;99342.72;12247475;19;19923;-88
2022/09/28 01:14:02;;;;;;;;;;;14.30;50.60;;;12.17;56.78;99337.06;12246991;19;19982;-88
2022/09/28 01:18:12;;;;;;;;;;;14.30;50.60;;;12.33;56.79;99354.91;12248188;19;19926;-88
2022/09/28 01:22:37;;;;;;;;;;;14.30;50.60;;;12.33;56.96;99350.50;12249272;19;19944;-88
2022/09/28 01:26:53;;;;;;;;;;;14.40;50.70;;;12.22;56.71;99324.41;12245192;19;19922;-88
2022/09/28 01:31:06;;;;;;;;;;;14.40;50.70;;;12.34;56.90;99346.94;12241018;19;19907;-88
2022/09/28 01:35:17;;;;;;;;;;;14.40;50.70;;;12.31;57.00;99339.34;12245766;19;19944;-88
2022/09/28 01:39:34;;;;;;;;;;;14.40;50.60;;;12.17;57.03;99306.47;12243399;19;22633;-89
2022/09/28 01:43:41;;;;;;;;;;;14.40;50.60;;;12.12;56.92;99303.44;12247180;19;19914;-89
2022/09/28 01:47:45;;;;;;;;;;;14.70;50.70;;;12.13;57.06;99299.84;12249222;19;20269;-88
2022/09/28 01:51:57;;;;;;;;;;;14.60;50.80;;;12.28;56.93;99323.88;12246653;19;19933;-89
2022/09/28 01:56:04;;;;;;;;;;;14.40;50.80;;;12.12;56.80;99308.69;12245139;19;20325;-89
2022/09/28 02:00:09;;;;;;;;;;;14.40;50.70;;;12.27;56.81;99326.66;12251509;19;20284;-88
2022/09/28 02:04:22;;;;;;;;;;;14.40;50.70;;;12.01;56.79;99276.50;12256746;19;19914;-89
2022/09/28 02:08:49;;;;;;;;;;;14.40;50.60;;;12.09;56.97;99303.69;12258689;19;19954;-89
2022/09/28 02:12:57;;;;;;;;;;;14.40;50.60;;;12.23;56.93;99328.69;12258796;19;19924;-89
2022/09/28 02:16:59;;;;;;;;;;;14.30;50.60;;;11.90;57.03;99272.19;12258020;19;19915;-89
2022/09/28 02:21:10;;;;;;;;;;;14.30;50.60;;;12.03;57.05;99293.72;12259620;19;19919;-89
2022/09/28 02:25:34;;;;;;;;;;;14.30;50.60;;;12.22;56.99;99320.97;12254314;19;19914;-88
2022/09/28 02:29:35;;;;;;;;;;;14.30;50.70;;;12.06;56.88;99301.31;12259254;19;19931;-88
2022/09/28 02:33:39;;;;;;;;;;;14.60;50.90;;;12.12;56.93;99319.16;12257836;19;19912;-89
2022/09/28 02:37:42;;;;;;;;;;;14.20;50.60;;;12.10;57.11;99320.22;12257564;19;19918;-88
2022/09/28 02:42:02;;;;;;;;;;;14.20;50.60;;;12.13;57.14;99331.25;12258060;19;19964;-88
2022/09/28 02:46:31;;;;;;;;;;;14.20;50.50;;;12.10;57.14;99325.47;12251956;19;19986;-89
2022/09/28 02:51:14;;;;;;;;;;;14.20;50.50;;;12.08;57.28;99328.19;12258581;19;19922;-88
2022/09/28 02:55:41;;;;;;;;;;;14.20;50.60;;;11.96;57.16;99292.59;12254608;19;19922;-89
2022/09/28 03:00:09;;;;;;;;;;;14.20;50.70;;;12.10;57.24;99312.38;12258770;19;19915;-89
2022/09/28 03:04:29;;;;;;;;;;;14.20;50.80;;;12.11;57.34;99298.31;12253277;19;19919;-89
2022/09/28 03:08:50;;;;;;;;;;;14.10;50.70;;;12.09;57.22;99290.59;12257229;19;19934;-88
2022/09/28 03:12:53;;;;;;;;;;;14.20;50.80;;;12.11;57.32;99306.19;12253534;19;19919;-89
2022/09/28 03:16:54;;;;;;;;;;;14.10;50.70;;;11.81;57.09;99252.84;12253399;19;20382;-89
2022/09/28 03:20:56;;;;;;;;;;;14.20;50.90;;;11.91;56.94;99266.84;12256229;19;19922;-89
2022/09/28 03:24:58;;;;;;;;;;;14.50;51.00;;;12.06;57.32;99296.09;12253928;19;19915;-89
2022/09/28 03:28:59;;;;;;;;;;;14.10;50.80;;;11.86;57.15;99255.09;12254179;19;19918;-89
2022/09/28 03:33:02;;;;;;;;;;;14.10;50.70;;;12.07;57.27;99284.69;12252918;19;19918;-88
2022/09/28 03:37:06;;;;;;;;;;;14.10;50.80;;;11.73;57.14;99234.34;12254198;19;19929;-88
2022/09/28 03:41:08;;;;;;;;;;;14.10;50.70;;;11.88;57.29;99255.78;12250208;19;19975;-89
2022/09/28 03:45:14;;;;;;;;;;;14.60;51.40;;;11.86;57.25;99266.38;12251463;19;19921;-89
2022/09/28 03:49:16;;;;;;;;;;;14.10;50.80;;;11.92;57.18;99281.56;12253191;19;19947;-89
2022/09/28 03:53:18;;;;;;;;;;;14.50;50.80;;;11.76;57.28;99259.41;12251612;19;19918;-89
2022/09/28 03:57:19;;;;;;;;;;;14.10;50.80;;;11.88;57.29;99266.25;12254947;19;19944;-89
2022/09/28 04:01:21;;;;;;;;;;;14.00;50.70;;;11.76;57.33;99248.94;12252431;19;20573;-89
2022/09/28 04:05:23;;;;;;;;;;;14.00;50.70;;;11.68;57.49;99237.34;12248857;19;20313;-89
2022/09/28 04:09:25;;;;;;;;;;;13.90;50.70;;;11.73;57.39;99244.81;12254032;19;19918;-89
2022/09/28 04:13:29;;;;;;;;;;;14.30;50.80;;;11.78;57.29;99258.31;12251620;19;19915;-89
2022/09/28 04:17:33;;;;;;;;;;;13.90;50.60;;;11.74;57.50;99251.69;12251783;19;19915;-89
2022/09/28 04:21:36;;;;;;;;;;;13.90;50.60;;;11.68;57.26;99252.19;12250144;19;20306;-89
2022/09/28 04:25:46;;;;;;;;;;;14.10;50.60;;;11.28;57.29;99204.03;12247749;19;20521;-89
2022/09/28 04:29:48;;;;;;;;;;;13.80;50.30;;;11.54;57.34;99253.34;12254433;19;19986;-89
2022/09/28 04:33:49;;;;;;;;;;;13.80;50.30;;;11.16;57.27;99202.47;12245059;19;19925;-89
2022/09/28 04:37:51;;;;;;;;;;;13.70;50.20;;;11.44;57.19;99253.28;12253126;19;19922;-88
2022/09/28 04:41:52;;;;;;;;;;;13.90;50.30;;;10.97;57.10;99184.84;12250829;19;19986;-89
2022/09/28 04:45:59;;;;;;;;;;;13.60;50.10;;;11.23;57.12;99247.19;12248830;19;20311;-89
2022/09/28 04:50:03;;;;;;;;;;;13.60;50.10;;;11.24;57.31;99259.31;12242394;19;20381;-89
2022/09/28 04:54:08;;;;;;;;;;;13.50;50.10;;;11.10;57.21;99263.06;12247780;19;20248;-89
2022/09/28 04:58:09;;;;;;;;;;;13.60;50.10;;;10.74;57.17;99209.38;12247802;19;19926;-89
2022/09/28 05:02:13;;;;;;;;;;;13.30;50.00;;;11.03;57.39;99267.94;12246489;19;19923;-89
2022/09/28 05:06:52;;;;;;;;;;;13.20;50.10;;;11.04;57.35;99269.59;12246438;19;19914;-88
2022/09/28 05:11:05;;;;;;;;;;;13.20;50.30;;;11.05;57.48;99257.38;12249260;19;19994;-89
2022/09/28 05:15:07;;;;;;;;;;;13.20;50.40;;;11.05;57.29;99267.81;12246400;19;19986;-89
2022/09/28 05:19:09;;;;;;;;;;;13.20;50.40;;;10.97;57.47;99242.31;12247747;19;20368;-88
2022/09/28 05:23:11;;;;;;;;;;;13.20;50.50;;;11.14;57.49;99269.69;12244505;19;19948;-89
2022/09/28 05:27:13;;;;;;;;;;;13.20;50.70;;;10.68;57.40;99189.81;12228363;19;19918;-89
2022/09/28 05:31:15;;;;;;;;;;;13.30;50.80;;;11.04;57.63;99248.72;12244070;19;19926;-89
2022/09/28 05:35:43;;;;;;;;;;;13.30;50.80;;;11.24;57.43;99275.00;12228874;19;19911;-88
2022/09/28 05:39:44;;;;;;;;;;;13.30;50.90;;;11.25;57.64;99281.88;12229849;19;19931;-89
2022/09/28 05:43:46;;;;;;;;;;;13.30;50.90;;;11.10;57.34;99249.13;12237205;19;19926;-88
2022/09/28 05:47:47;;;;;;;;;;;13.40;50.90;;;11.19;57.60;99251.03;12238192;19;19926;-89
2022/09/28 05:51:53;;;;;;;;;;;13.70;51.00;;;11.30;57.42;99259.63;12238983;19;20350;-88
2022/09/28 05:55:58;;;;;;;;;;;13.70;51.00;;;11.25;57.33;99243.50;12246168;19;20003;-88
2022/09/28 06:00:01;;;;;;;;;;;13.40;50.90;;;11.33;57.68;99249.88;12242962;19;20308;-88
2022/09/28 06:04:02;;;;;;;;;;;13.40;51.00;;;11.01;57.56;99194.06;12224524;19;20246;-88
2022/09/28 06:08:05;;;;;;;;;;;13.40;50.90;;;11.23;57.72;99221.06;12235232;19;19938;-89
2022/09/28 06:12:07;;;;;;;;;;;13.80;51.10;;;11.01;57.67;99161.91;12241460;19;19951;-89
2022/09/28 06:16:15;;;;;;;;;;;13.50;51.10;;;11.33;57.78;99203.66;12237833;19;20326;-87
2022/09/28 06:20:17;;;;;;;;;;;13.50;51.10;;;11.57;57.62;99233.97;12227457;19;20030;-89
2022/09/28 06:24:41;;;;;;;;;;;13.50;51.20;;;11.56;57.59;99211.38;12243056;19;19922;-89
2022/09/28 06:28:43;;;;;;;;;;;13.60;51.10;;;11.47;57.82;99195.50;12247731;19;19911;-88
2022/09/28 06:32:45;;;;;;;;;;;13.60;51.20;;;11.42;57.75;99173.31;12238409;19;21473;-88
2022/09/28 06:36:47;;;;;;;;;;;13.70;51.20;;;11.72;57.70;99215.22;12229937;19;19927;-87
2022/09/28 06:40:49;;;;;;;;;;;13.70;51.30;;;11.77;57.69;99214.81;12241996;19;20338;-86
2022/09/28 06:44:50;;;;;;;;;;;14.10;51.50;;;11.48;57.79;99159.75;12240184;19;19926;-87
2022/09/28 06:48:59;;;;;;;;;;;13.90;51.30;;;11.84;57.68;99205.50;12254864;19;20304;-87
2022/09/28 06:53:19;;;;;;;;;;;13.90;51.30;;;11.87;57.71;99200.03;12252889;19;19919;-87
2022/09/28 06:57:28;;;;;;;;;;;14.00;51.40;;;12.02;57.69;99197.09;12255026;19;20321;-89
2022/09/28 07:01:30;;;;;;;;;;;14.10;51.40;;;12.13;57.90;99215.28;12252852;19;19953;-88
2022/09/28 07:05:43;;;;;;;;;;;14.10;51.10;;;11.77;57.95;99146.81;12242530;19;20288;-89
2022/09/28 07:10:03;;;;;;;;;;;14.10;51.30;;;12.04;57.90;99176.81;12245539;19;19911;-88
2022/09/28 07:14:19;;;;;;;;;;;14.20;51.10;;;12.33;57.81;99217.00;12248146;19;19931;-88
2022/09/28 07:18:22;;;;;;;;;;;14.50;51.20;;;12.36;57.69;99215.91;12250700;19;20357;-87
2022/09/28 07:22:23;;;;;;;;;;;14.60;51.30;;;12.38;57.91;99208.75;12251175;19;19941;-87
2022/09/28 07:26:26;;;;;;;;;;;14.40;51.40;;;12.35;57.89;99198.56;12246828;19;20333;-87
2022/09/28 07:30:43;;;;;;;;;;;14.40;51.30;;;12.51;57.81;99214.59;12247630;19;19927;-87
2022/09/28 07:34:53;;;;;;;;;;;14.50;51.30;;;12.46;57.86;99202.84;12248893;19;19927;-87
2022/09/28 07:39:02;;;;;;;;;;;14.60;51.30;;;12.64;57.79;99219.56;12251013;19;19982;-87
2022/09/28 07:43:04;;;;;;;;;;;14.60;51.20;;;12.42;57.78;99183.94;12249113;19;19919;-87
2022/09/28 07:47:06;;;;;;;;;;;14.70;51.20;;;12.70;57.86;99213.78;12250922;19;19919;-87
2022/09/28 07:51:31;;;;;;;;;;;14.70;51.30;;;12.86;57.86;99228.97;12250153;19;19910;-88
2022/09/28 07:55:52;;;;;;;;;;;14.80;51.50;;;13.02;58.02;99224.03;12248077;19;19923;-87
2022/09/28 08:00:13;;;;;;;;;;;14.90;51.40;;;13.08;57.85;99212.16;12252305;19;19919;-88
2022/09/28 08:04:22;;;;;;;;;;;15.10;51.30;;;13.12;57.90;99202.22;12249527;19;19918;-90
2022/09/28 08:08:26;;;;;;;;;;;15.10;51.40;;;12.95;57.91;99154.78;12251807;19;20345;-89
2022/09/28 08:12:28;;;;;;;;;;;15.20;51.20;;;13.31;57.91;99207.47;12247621;19;19917;-90
2022/09/28 08:16:52;;;;;;;;;;;15.40;51.40;;;13.35;57.80;99194.94;12251340;19;19919;-90
2022/09/28 08:25:30;;;;;;;;;;;15.60;51.40;;;13.76;57.90;99237.50;12248066;19;19914;-90
2022/09/28 08:29:38;;;;;;;;;;;15.60;51.80;;;13.77;57.81;99229.50;12247804;19;19926;-89
2022/09/28 08:34:06;;;;;;;;;;;15.70;51.30;;;13.86;57.77;99233.06;12248532;19;20253;-89
2022/09/28 08:38:27;;;;;;;;;;;15.80;51.30;;;13.87;57.83;99239.97;12249510;19;19919;-89
2022/09/28 08:42:59;;;;;;;;;;;15.80;51.30;;;13.84;57.81;99225.34;12246398;19;19974;-91
2022/09/28 08:52:16;;;;;;;;;;;16.00;51.10;;;13.93;57.72;99239.38;12246974;19;20389;-92
2022/09/28 08:57:07;;;;;;;;;;;16.00;51.00;;;13.80;57.68;99234.47;12239055;19;20386;-92
2022/09/28 09:01:36;;;;;;;;;;;15.90;50.80;;;13.82;57.81;99248.25;12238048;19;19923;-92
2022/09/28 09:06:02;;;;;;;;;;;15.90;50.70;;;13.85;57.66;99239.28;12244723;19;19919;-89
2022/09/28 09:10:37;;;;;;;;;;;15.90;50.90;;;13.90;57.81;99243.13;12237193;19;19918;-88
2022/09/28 09:14:50;;;;;;;;;;;15.90;50.80;;;13.70;57.65;99205.63;12244382;19;19944;-87
2022/09/28 09:19:32;;;;;;;;;;;15.90;50.80;;;13.93;57.67;99240.22;12244440;19;19919;-89
2022/09/28 09:24:00;;;;;;;;;;;15.90;50.70;;;13.82;57.87;99218.56;12241329;19;19922;-88
2022/09/28 09:28:11;;;;;;;;;;;16.00;50.80;;;14.01;57.74;99241.31;12246058;19;19910;-87
2022/09/28 09:32:19;;;;;;;;;;;16.00;50.90;;;14.11;57.79;99242.09;12246487;19;19919;-87
2022/09/28 09:36:33;;;;;;;;;;;16.10;50.90;;;14.25;57.82;99244.25;12242338;19;20253;-87
2022/09/28 09:41:49;;;;;;;;;;;16.10;50.90;;;14.32;57.71;99224.31;12245362;19;19919;-87
2022/09/28 09:46:41;;;;;;;;;;;16.20;50.90;;;14.54;57.90;99222.31;12243148;19;21953;-87
2022/09/28 09:51:38;;;;;;;;;;;16.40;51.10;;;14.79;57.72;99229.47;12239054;19;20791;-88
2022/09/28 09:55:45;;;;;;;;;;;16.60;51.20;;;14.90;57.87;99209.19;12236920;19;20325;-88
2022/09/28 10:00:15;;;;;;;;;;;16.70;51.10;;;15.11;57.64;99209.72;12248556;19;19927;-88
2022/09/28 10:04:34;;;;;;;;;;;16.90;51.00;;;15.22;57.49;99200.78;12241252;19;19918;-87
2022/09/28 10:08:49;;;;;;;;;;;17.00;50.80;;;15.29;57.20;99207.09;12243901;19;19935;-87
2022/09/28 10:12:52;;;;;;;;;;;17.20;50.70;;;15.43;57.35;99214.44;12243242;19;19925;-87
2022/09/28 10:16:56;;;;;;;;;;;17.30;50.60;;;15.43;57.26;99217.06;12247194;19;20277;-87
2022/09/28 10:21:20;;;;;;;;;;;17.70;50.40;;;15.44;57.26;99217.88;12249261;19;20051;-87
2022/09/28 10:25:26;;;;;;;;;;;17.40;50.10;;;15.46;56.94;99214.13;12251167;19;20337;-86
2022/09/28 10:29:32;;;;;;;;;;;17.70;50.50;;;15.56;57.03;99229.00;12255800;19;19978;-87
2022/09/28 10:33:34;;;;;;;;;;;17.60;49.90;;;15.48;57.03;99217.44;12251578;19;19943;-87
2022/09/28 10:38:02;;;;;;;;;;;17.50;49.90;;;15.53;56.87;99224.00;12256907;19;19910;-88
2022/09/28 10:42:26;;;;;;;;;;;17.50;50.00;;;15.33;57.06;99197.91;12256759;19;19978;-88
2022/09/28 10:46:27;;;;;;;;;;;17.50;49.70;;;15.41;56.99;99223.44;12252235;19;20668;-87
2022/09/28 10:50:30;;;;;;;;;;;17.50;49.80;;;15.35;56.91;99221.44;12255220;19;19918;-86
2022/09/28 10:54:51;;;;;;;;;;;17.40;49.60;;;15.38;56.72;99221.13;12251602;19;20422;-86
2022/09/28 10:58:52;;;;;;;;;;;17.40;49.70;;;15.35;56.90;99231.94;12253714;19;19991;-87
2022/09/28 11:03:02;;;;;;;;;;;17.40;49.70;;;14.99;56.81;99177.59;12253483;19;19927;-86
2022/09/28 11:07:12;;;;;;;;;;;17.40;49.70;;;15.13;57.13;99191.19;12254576;19;19974;-86
2022/09/28 11:11:18;;;;;;;;;;;17.30;49.70;;;15.15;56.81;99204.97;12256657;19;19970;-86
2022/09/28 11:15:28;;;;;;;;;;;17.60;49.90;;;15.09;56.71;99197.72;12253808;19;19922;-86
2022/09/28 11:19:30;;;;;;;;;;;17.70;50.00;;;15.22;57.06;99227.91;12257149;19;19970;-86
2022/09/28 11:23:31;;;;;;;;;;;17.20;49.70;;;15.17;56.79;99234.59;12254161;19;20254;-86
2022/09/28 11:27:50;;;;;;;;;;;17.20;49.70;;;15.08;56.90;99238.94;12257683;19;19926;-86
2022/09/28 11:31:57;;;;;;;;;;;17.10;49.70;;;14.97;56.89;99236.56;12253507;19;19927;-87
2022/09/28 11:36:12;;;;;;;;;;;17.20;49.90;;;14.73;57.02;99202.97;12247805;19;19926;-87
2022/09/28 11:40:26;;;;;;;;;;;17.00;49.90;;;14.93;56.98;99236.03;12253924;19;20033;-88
2022/09/28 11:44:58;;;;;;;;;;;17.00;49.90;;;14.89;56.87;99241.72;12252284;19;19919;-87
2022/09/28 11:49:25;;;;;;;;;;;16.90;50.00;;;14.72;57.03;99219.72;12251570;19;19923;-87
2022/09/28 11:53:35;;;;;;;;;;;16.80;50.10;;;14.85;56.90;99245.63;12250322;19;19927;-87
2022/09/28 11:57:40;;;;;;;;;;;16.90;50.20;;;14.83;57.12;99237.91;12254075;19;19930;-87
2022/09/28 12:01:44;;;;;;;;;;;16.80;50.10;;;14.83;57.04;99248.41;12251876;19;19915;-87
2022/09/28 12:06:07;;;;;;;;;;;16.80;50.10;;;14.75;57.06;99241.25;12250802;19;19918;-87
2022/09/28 12:10:16;;;;;;;;;;;16.80;50.00;;;14.79;57.02;99263.63;12251683;19;19926;-87
2022/09/28 12:14:22;;;;;;;;;;;16.80;50.10;;;14.68;57.08;99237.56;12250009;19;19944;-87
2022/09/28 12:18:36;;;;;;;;;;;16.80;50.10;;;14.68;56.95;99240.19;12240399;19;19926;-87
2022/09/28 12:22:44;;;;;;;;;;;16.70;50.10;;;14.69;56.81;99241.84;12251367;19;19944;-87
2022/09/28 12:26:50;;;;;;;;;;;16.90;50.20;;;14.70;57.00;99247.94;12248683;19;19936;-87
2022/09/28 12:30:53;;;;;;;;;;;16.70;50.20;;;14.63;56.98;99237.16;12252193;19;19943;-87
2022/09/28 12:34:55;;;;;;;;;;;16.70;50.30;;;14.41;57.03;99192.91;12248810;19;19951;-88
2022/09/28 12:39:12;;;;;;;;;;;16.70;50.40;;;14.79;56.91;99252.28;12251440;19;20238;-87
2022/09/28 12:43:27;;;;;;;;;;;16.70;50.40;;;14.79;56.96;99242.59;12248676;19;19969;-86
2022/09/28 12:48:07;;;;;;;;;;;16.70;50.50;;;14.82;56.87;99249.38;12250466;19;20234;-88
2022/09/28 12:53:00;;;;;;;;;;;16.70;50.40;;;14.82;57.02;99254.63;12250582;19;19950;-87
2022/09/28 12:57:35;;;;;;;;;;;16.80;50.50;;;14.75;57.00;99246.50;12245581;19;19915;-87
2022/09/28 13:01:45;;;;;;;;;;;16.70;50.40;;;14.81;56.80;99258.22;12244958;19;19921;-87
2022/09/28 13:06:04;;;;;;;;;;;16.70;50.30;;;14.79;57.04;99257.53;12244565;19;19910;-88
2022/09/28 13:10:12;;;;;;;;;;;16.80;50.30;;;14.78;56.85;99259.34;12245590;19;19936;-87
2022/09/28 13:14:45;;;;;;;;;;;16.70;50.30;;;14.80;56.82;99262.66;12243304;19;19943;-88
2022/09/28 13:19:20;;;;;;;;;;;16.80;50.40;;;14.82;56.91;99257.25;12246657;19;19915;-88
2022/09/28 13:23:26;;;;;;;;;;;16.70;50.40;;;14.62;56.92;99226.81;12245208;19;19923;-87
2022/09/28 13:27:38;;;;;;;;;;;16.70;50.40;;;14.66;56.82;99246.56;12244106;19;19919;-87
2022/09/28 13:31:56;;;;;;;;;;;16.70;50.20;;;14.48;56.93;99236.81;12243740;19;19919;-88
2022/09/28 13:35:57;;;;;;;;;;;16.90;50.40;;;14.57;56.92;99254.34;12241639;19;19957;-88
2022/09/28 13:40:04;;;;;;;;;;;16.60;50.40;;;14.55;57.09;99248.41;12245946;19;19922;-87
2022/09/28 13:44:12;;;;;;;;;;;16.50;50.30;;;14.64;57.00;99265.13;12240208;19;19925;-87
2022/09/28 13:48:19;;;;;;;;;;;16.50;50.40;;;14.49;56.78;99235.84;12247101;19;19939;-87
2022/09/28 13:52:33;;;;;;;;;;;16.60;50.50;;;14.68;57.02;99263.84;12244856;19;20257;-87
2022/09/28 13:57:08;;;;;;;;;;;17.00;50.60;;;14.70;57.01;99268.97;12249024;19;19923;-86
2022/09/28 14:01:13;;;;;;;;;;;16.60;50.50;;;14.67;56.95;99267.44;12259176;19;19926;-88
2022/09/28 14:05:21;;;;;;;;;;;16.80;50.60;;;14.67;56.97;99275.31;12253599;19;20326;-87
2022/09/28 14:09:38;;;;;;;;;;;16.60;50.50;;;14.66;56.88;99284.16;12250872;19;19935;-88
2022/09/28 14:13:39;;;;;;;;;;;16.70;50.50;;;14.63;56.90;99281.00;12254300;19;20358;-88
2022/09/28 14:17:52;;;;;;;;;;;16.60;50.40;;;14.46;57.22;99258.94;12256962;19;19930;-88
2022/09/28 14:22:09;;;;;;;;;;;16.60;50.40;;;14.58;57.03;99287.56;12255950;19;19919;-88
2022/09/28 14:26:10;;;;;;;;;;;16.60;50.40;;;14.58;57.11;99291.94;12252756;19;19907;-88
2022/09/28 14:30:11;;;;;;;;;;;16.50;50.50;;;14.56;57.00;99289.50;12257964;19;19932;-88
2022/09/28 14:34:56;;;;;;;;;;;16.60;50.50;;;14.48;56.90;99281.47;12256427;19;19979;-88
2022/09/28 14:43:38;;;;;;;;;;;16.40;50.60;;;14.37;56.84;99284.28;12255764;19;19919;-88
2022/09/28 14:48:02;;;;;;;;;;;16.40;50.50;;;14.34;57.03;99285.41;12252708;19;19919;-88
2022/09/28 14:52:03;;;;;;;;;;;16.40;50.60;;;14.42;57.02;99297.81;12253580;19;19921;-88
2022/09/28 14:56:07;;;;;;;;;;;16.40;50.60;;;14.35;56.93;99287.06;12244399;19;19922;-88
2022/09/28 15:00:21;;;;;;;;;;;16.40;50.60;;;14.45;56.88;99308.03;12254115;19;19949;-88
2022/09/28 15:04:26;;;;;;;;;;;16.40;50.50;;;14.35;57.02;99292.31;12246652;19;19926;-88
2022/09/28 15:08:37;;;;;;;;;;;16.40;50.50;;;14.43;57.00;99303.91;12254446;19;19906;-88
2022/09/28 15:12:42;;;;;;;;;;;16.40;50.40;;;14.14;56.86;99263.63;12254874;19;19930;-88
2022/09/28 15:16:43;;;;;;;;;;;16.40;50.40;;;14.42;56.87;99315.34;12252227;19;19944;-88
2022/09/28 15:20:47;;;;;;;;;;;16.70;50.40;;;14.08;56.96;99261.59;12255423;19;19944;-88
2022/09/28 15:25:02;;;;;;;;;;;16.40;50.30;;;14.41;56.87;99321.59;12250783;19;19922;-88
2022/09/28 15:29:16;;;;;;;;;;;16.50;50.20;;;14.41;56.80;99317.16;12256144;19;19919;-88
2022/09/28 15:37:44;;;;;;;;;;;16.40;50.20;;;14.53;56.76;99331.00;12254988;19;19933;-88
2022/09/28 15:41:47;;;;;;;;;;;16.40;50.30;;;14.44;56.82;99330.00;12255190;19;19919;-87
2022/09/28 15:46:05;;;;;;;;;;;16.70;50.30;;;14.27;56.84;99305.31;12251057;19;19919;-88
2022/09/28 15:50:20;;;;;;;;;;;16.80;50.40;;;14.00;56.80;99250.16;12252749;19;19953;-88
2022/09/28 15:54:26;;;;;;;;;;;16.40;50.20;;;14.39;56.71;99321.72;12249932;19;19922;-88
2022/09/28 15:58:27;;;;;;;;;;;16.50;50.20;;;14.47;56.73;99337.59;12243844;19;20289;-88
2022/09/28 16:02:29;;;;;;;;;;;16.40;50.10;;;14.54;56.80;99343.16;12251170;19;19998;-88
2022/09/28 16:06:30;;;;;;;;;;;16.50;50.10;;;14.50;56.71;99334.69;12250687;19;20445;-88
2022/09/28 16:10:34;;;;;;;;;;;16.50;50.10;;;14.53;56.86;99342.31;12253822;19;20000;-88
2022/09/28 16:14:36;;;;;;;;;;;16.50;50.10;;;14.38;56.63;99323.53;12250387;19;19936;-88
2022/09/28 16:18:38;;;;;;;;;;;16.50;50.00;;;14.41;56.81;99343.44;12249394;19;20246;-88
2022/09/28 16:22:41;;;;;;;;;;;16.50;50.00;;;14.44;56.84;99352.81;12250247;19;19911;-87
2022/09/28 16:26:43;;;;;;;;;;;16.40;50.00;;;14.35;56.77;99347.44;12245368;19;19944;-88
2022/09/28 16:31:15;;;;;;;;;;;16.40;50.00;;;14.43;56.86;99373.00;12250297;19;19915;-88
2022/09/28 16:35:21;;;;;;;;;;;16.40;50.00;;;14.38;56.82;99375.22;12239343;19;20284;-87
2022/09/28 16:39:24;;;;;;;;;;;16.40;50.00;;;14.33;56.79;99367.78;12251680;19;19915;-87
2022/09/28 16:43:36;;;;;;;;;;;16.40;50.00;;;14.28;56.74;99370.00;12303910;19;19936;-87
2022/09/28 16:47:39;;;;;;;;;;;16.40;50.10;;;14.36;56.73;99387.66;12305255;19;19914;-87
2022/09/28 16:51:40;;;;;;;;;;;16.60;50.20;;;13.92;56.79;99326.97;12302804;19;19930;-87
2022/09/28 16:55:42;;;;;;;;;;;16.60;50.20;;;14.25;56.73;99395.72;12302262;19;19910;-87
2022/09/28 16:59:43;;;;;;;;;;;16.30;50.00;;;14.28;56.86;99396.25;12301079;19;19919;-86
2022/09/28 17:03:47;;;;;;;;;;;16.70;50.20;;;14.15;56.72;99386.06;12299787;19;20207;-87
2022/09/28 17:08:02;;;;;;;;;;;16.20;50.00;;;14.12;56.78;99390.75;12297913;19;19923;-87
2022/09/28 17:12:23;;;;;;;;;;;16.20;50.00;;;14.11;56.93;99396.97;12281077;19;19990;-87
2022/09/28 17:16:27;;;;;;;;;;;16.20;50.00;;;14.09;56.82;99402.34;12277580;19;19922;-87
2022/09/28 17:20:30;;;;;;;;;;;16.10;50.10;;;13.97;56.82;99385.13;12300430;19;19919;-87
2022/09/28 17:24:31;;;;;;;;;;;16.10;50.10;;;13.83;56.90;99372.44;12299242;19;19927;-87
2022/09/28 17:28:36;;;;;;;;;;;16.10;50.20;;;13.93;56.86;99389.81;12304159;19;19926;-88
2022/09/28 17:32:43;;;;;;;;;;;16.30;50.20;;;13.90;56.93;99397.13;12304463;19;19919;-87
2022/09/28 17:36:45;;;;;;;;;;;16.00;50.10;;;14.05;56.82;99422.00;12291251;19;19982;-87
2022/09/28 17:40:46;;;;;;;;;;;16.00;50.20;;;13.88;56.84;99404.31;12303093;19;19936;-87
2022/09/28 17:44:48;;;;;;;;;;;16.00;50.20;;;14.01;56.90;99433.72;12297972;19;19919;-87
2022/09/28 17:48:49;;;;;;;;;;;16.10;50.20;;;13.90;56.77;99431.25;12303957;19;19938;-87
2022/09/28 17:52:51;;;;;;;;;;;16.00;50.20;;;13.91;56.66;99435.53;12278380;19;19934;-87
2022/09/28 17:56:52;;;;;;;;;;;16.00;50.20;;;13.93;56.96;99436.22;12250539;19;19915;-87
2022/09/28 18:00:54;;;;;;;;;;;15.90;50.30;;;13.91;56.89;99439.00;12253003;19;19914;-88
2022/09/28 18:04:55;;;;;;;;;;;15.90;50.30;;;13.88;56.90;99441.03;12252150;19;19943;-87
2022/09/28 18:08:57;;;;;;;;;;;15.90;50.20;;;13.76;56.75;99427.25;12253043;19;19927;-87
2022/09/28 18:12:58;;;;;;;;;;;15.90;50.30;;;13.80;56.89;99433.88;12247536;19;19956;-87
2022/09/28 18:16:59;;;;;;;;;;;15.90;50.30;;;13.61;56.97;99407.59;12254078;19;20289;-87
2022/09/28 18:21:01;;;;;;;;;;;16.30;50.50;;;13.50;56.99;99393.69;12250950;19;20003;-87
2022/09/28 18:25:03;;;;;;;;;;;15.80;50.30;;;13.77;56.92;99446.44;12251357;19;19918;-87
2022/09/28 18:29:05;;;;;;;;;;;15.80;50.30;;;13.65;56.95;99435.25;12252940;19;20329;-88
2022/09/28 18:33:06;;;;;;;;;;;16.10;50.50;;;13.80;56.96;99469.75;12253300;19;19938;-87
2022/09/28 18:37:09;;;;;;;;;;;16.10;50.50;;;13.69;56.88;99458.44;12253801;19;19950;-87
2022/09/28 18:41:15;;;;;;;;;;;15.80;50.30;;;13.75;57.04;99472.00;12252770;19;19932;-87
2022/09/28 18:45:17;;;;;;;;;;;16.00;50.40;;;13.36;56.93;99422.91;12249791;19;19942;-87
2022/09/28 18:49:19;;;;;;;;;;;15.80;50.40;;;13.62;56.91;99465.19;12252950;19;19922;-87
2022/09/28 18:53:22;;;;;;;;;;;15.70;50.40;;;13.69;57.03;99484.69;12250150;19;20304;-87
2022/09/28 18:57:23;;;;;;;;;;;15.70;50.40;;;13.64;56.96;99484.25;12248851;19;19919;-87
2022/09/28 19:01:25;;;;;;;;;;;15.70;50.40;;;13.60;56.97;99484.66;12249184;19;19923;-87
2022/09/28 19:05:27;;;;;;;;;;;15.60;50.30;;;13.59;56.97;99489.06;12247392;19;19970;-87
2022/09/28 19:09:29;;;;;;;;;;;15.80;50.40;;;13.32;57.05;99444.28;12250098;19;20040;-87
2022/09/28 19:13:31;;;;;;;;;;;15.70;50.40;;;13.22;57.05;99434.56;12249887;19;19962;-87